Time;durP1;ratioP1;P1;durP2;ratioP2;P2;SDS_P1;SDS_P2;PMS_P1;PMS_P2;Temp;Humidity;BMP_temperature;BMP_pressure;BME280_temperature;BME280_humidity;BME280_pressure;Samples;Min_cycle;Max_cycle;Signal;HPM_P1;HPM_P2
2023/06/03 00:00:55;;;;;;;8.02;3.78;;;15.30;80.90;;;;;;4890119;29;20068;-70
2023/06/03 05:02:00;;;;;;;10.68;3.53;;;13.70;90.30;;;;;;5603836;23;20307;-71
2023/06/03 05:04:29;;;;;;;8.57;3.90;;;13.80;90.40;;;;;;4878433;29;20247;-72
2023/06/03 05:06:57;;;;;;;9.02;3.53;;;13.80;90.40;;;;;;4888057;29;20024;-72
2023/06/03 05:09:23;;;;;;;7.85;3.22;;;13.80;90.20;;;;;;4889561;29;20028;-71
2023/06/03 05:11:52;;;;;;;11.68;3.55;;;13.90;90.20;;;;;;4872648;29;20036;-70
2023/06/03 05:14:18;;;;;;;7.40;3.25;;;13.80;90.40;;;;;;4872057;29;20025;-72
2023/06/03 05:16:44;;;;;;;8.05;3.63;;;13.90;90.30;;;;;;4872545;29;20028;-70
2023/06/03 05:19:10;;;;;;;13.77;3.53;;;13.90;90.20;;;;;;4883073;29;20229;-71
2023/06/03 05:21:37;;;;;;;8.27;3.28;;;14.00;90.30;;;;;;4890534;29;20032;-70
2023/06/03 05:24:03;;;;;;;10.15;4.07;;;14.00;90.30;;;;;;4891282;29;20103;-72
2023/06/03 05:26:29;;;;;;;11.45;3.75;;;14.10;90.30;;;;;;4906927;29;20024;-70
2023/06/03 05:28:55;;;;;;;9.65;3.75;;;14.20;90.00;;;;;;4907791;29;20032;-70
2023/06/03 05:31:23;;;;;;;12.75;4.40;;;14.20;90.00;;;;;;4890402;29;20028;-69
2023/06/03 05:33:48;;;;;;;8.45;3.53;;;14.40;89.30;;;;;;4891107;29;20243;-73
2023/06/03 05:36:17;;;;;;;8.45;3.28;;;14.50;89.00;;;;;;4879392;29;20077;-70
2023/06/03 05:38:44;;;;;;;7.68;3.30;;;14.60;88.80;;;;;;4872296;29;20037;-70
2023/06/03 05:41:12;;;;;;;;;;;14.70;88.10;;;;;;4872891;29;20029;-70
2023/06/03 05:43:39;;;;;;;7.10;3.33;;;14.80;88.00;;;;;;4888171;29;19904;-71
2023/06/03 05:46:05;;;;;;;10.77;4.15;;;14.90;87.20;;;;;;4872436;29;20248;-72
2023/06/03 05:48:31;;;;;;;8.32;3.28;;;15.00;87.40;;;;;;4888167;29;20064;-73
2023/06/03 05:50:56;;;;;;;7.15;3.35;;;15.00;85.90;;;;;;4888992;29;20029;-71
2023/06/03 05:53:26;;;;;;;8.43;3.22;;;15.20;85.90;;;;;;4871626;29;20049;-72
2023/06/03 05:55:54;;;;;;;;;;;15.20;85.70;;;;;;4872385;29;20036;-71
2023/06/03 05:58:21;;;;;;;10.77;3.53;;;15.40;85.50;;;;;;4871736;29;19908;-72
2023/06/03 06:00:47;;;;;;;11.75;3.88;;;15.50;84.90;;;;;;4873381;29;20036;-72
2023/06/03 06:03:14;;;;;;;12.90;3.55;;;15.60;84.20;;;;;;4869723;29;20086;-71
2023/06/03 06:05:40;;;;;;;11.77;4.10;;;15.70;83.80;;;;;;4894031;29;20020;-74
2023/06/03 06:08:06;;;;;;;10.05;3.20;;;15.80;83.50;;;;;;4894461;29;20266;-72
2023/06/03 06:10:32;;;;;;;9.05;3.70;;;15.90;83.10;;;;;;4893950;29;20223;-71
2023/06/03 06:12:58;;;;;;;12.18;3.58;;;15.90;83.20;;;;;;4911126;29;20033;-73
2023/06/03 06:15:28;;;;;;;7.30;3.20;;;16.10;82.70;;;;;;4893813;29;20072;-73
2023/06/03 06:17:53;;;;;;;8.02;3.40;;;16.20;82.10;;;;;;4910758;29;20330;-71
2023/06/03 06:20:19;;;;;;;7.72;3.22;;;16.20;81.60;;;;;;4910493;29;20091;-74
2023/06/03 06:22:48;;;;;;;8.73;3.20;;;16.30;81.40;;;;;;4894342;29;20029;-72
2023/06/03 06:25:14;;;;;;;8.32;3.15;;;16.50;80.80;;;;;;4894146;29;20037;-72
2023/06/03 06:27:41;;;;;;;10.68;3.97;;;16.50;80.50;;;;;;4910313;29;20099;-72
2023/06/03 06:30:08;;;;;;;9.13;3.53;;;16.60;80.10;;;;;;4893797;29;20360;-73
2023/06/03 06:32:49;;;;;;;11.23;3.73;;;16.70;79.90;;;;;;4893781;29;20104;-72
2023/06/03 06:35:17;;;;;;;6.82;2.78;;;16.80;80.20;;;;;;4894082;29;20310;-72
2023/06/03 06:37:43;;;;;;;9.73;3.50;;;16.80;79.80;;;;;;4893607;29;20025;-71
2023/06/03 06:40:19;;;;;;;7.50;3.50;;;16.90;80.00;;;;;;4893552;29;20071;-74
2023/06/03 06:42:46;;;;;;;9.73;3.08;;;17.10;79.20;;;;;;4893980;29;20036;-73
2023/06/03 06:45:34;;;;;;;7.18;3.13;;;17.00;79.10;;;;;;4893133;29;20028;-72
2023/06/03 06:48:06;;;;;;;10.35;3.85;;;17.10;79.00;;;;;;4893947;29;20059;-72
2023/06/03 06:50:50;;;;;;;7.90;3.35;;;17.10;78.90;;;;;;4892849;29;20199;-72
2023/06/03 06:53:19;;;;;;;8.70;3.50;;;17.10;78.60;;;;;;4893820;29;20237;-73
2023/06/03 06:55:56;;;;;;;13.05;3.70;;;17.10;78.50;;;;;;4893471;29;20276;-71
2023/06/03 06:58:39;;;;;;;8.20;3.42;;;17.30;78.70;;;;;;4893175;29;20063;-73
2023/06/03 07:01:06;;;;;;;9.70;3.28;;;17.40;79.00;;;;;;4893512;29;20443;-73
2023/06/03 07:03:35;;;;;;;;;;;17.60;78.50;;;;;;4892891;29;20053;-72
2023/06/03 07:06:00;;;;;;;8.55;2.97;;;17.70;77.60;;;;;;4893437;29;19911;-73
2023/06/03 07:08:28;;;;;;;10.07;3.60;;;17.70;77.60;;;;;;4892841;29;20036;-75
2023/06/03 07:10:58;;;;;;;11.35;3.85;;;17.80;77.40;;;;;;4893393;29;20080;-73
2023/06/03 07:13:24;;;;;;;7.60;3.28;;;17.90;76.90;;;;;;4892769;29;20024;-73
2023/06/03 07:15:50;;;;;;;7.50;2.78;;;18.00;76.60;;;;;;4910050;29;20031;-73
2023/06/03 07:18:16;;;;;;;6.57;3.15;;;18.10;76.70;;;;;;4893164;29;20039;-73
2023/06/03 07:20:44;;;;;;;11.13;3.50;;;18.20;76.10;;;;;;4892670;29;20036;-76
2023/06/03 07:23:13;;;;;;;9.07;3.40;;;18.40;76.00;;;;;;4893091;29;20033;-74
2023/06/03 07:25:43;;;;;;;;;;;18.50;75.50;;;;;;4893130;29;20107;-73
2023/06/03 07:28:11;;;;;;;8.85;3.45;;;18.70;75.20;;;;;;4893109;29;20241;-73
2023/06/03 07:30:39;;;;;;;8.15;3.55;;;18.70;74.90;;;;;;4892529;29;20043;-73
2023/06/03 07:33:10;;;;;;;9.95;3.60;;;18.80;74.60;;;;;;4893085;29;20035;-75
2023/06/03 07:35:37;;;;;;;9.27;3.47;;;18.90;74.40;;;;;;4892514;29;20024;-74
2023/06/03 07:38:04;;;;;;;7.38;3.40;;;18.90;74.60;;;;;;4893040;29;20043;-73
2023/06/03 07:40:42;;;;;;;8.43;3.42;;;19.00;74.50;;;;;;4892216;29;20035;-74
2023/06/03 07:43:10;;;;;;;;;;;19.00;74.40;;;;;;4893481;29;20039;-75
2023/06/03 07:45:36;;;;;;;9.60;4.07;;;18.90;74.70;;;;;;4909020;29;19907;-74
2023/06/03 07:48:03;;;;;;;10.63;3.80;;;19.10;74.70;;;;;;4909181;29;20036;-74
2023/06/03 07:50:30;;;;;;;7.63;4.00;;;19.20;73.60;;;;;;4908583;29;20064;-73
2023/06/03 07:53:01;;;;;;;9.75;4.20;;;19.30;74.20;;;;;;4909148;29;20336;-74
2023/06/03 07:55:33;;;;;;;7.47;3.03;;;19.40;73.20;;;;;;4908463;29;20032;-72
2023/06/03 07:57:59;;;;;;;9.25;3.47;;;19.50;73.10;;;;;;4909277;29;20322;-76
2023/06/03 08:00:25;;;;;;;9.30;3.67;;;19.60;73.10;;;;;;4908626;29;20092;-75
2023/06/03 08:02:51;;;;;;;8.80;3.53;;;19.60;72.50;;;;;;4908607;29;20284;-75
2023/06/03 08:05:24;;;;;;;6.82;3.25;;;19.60;73.00;;;;;;4909194;29;20084;-73
2023/06/03 08:07:50;;;;;;;9.35;3.50;;;19.70;73.00;;;;;;4892457;29;20037;-74
2023/06/03 08:10:22;;;;;;;8.80;3.63;;;19.90;73.30;;;;;;4908750;29;20033;-75
2023/06/03 08:12:48;;;;;;;13.55;3.92;;;20.10;72.40;;;;;;4908459;29;20083;-74
2023/06/03 08:15:26;;;;;;;8.40;3.45;;;20.10;72.30;;;;;;4909099;29;20087;-74
2023/06/03 08:17:52;;;;;;;;;;;20.30;72.50;;;;;;4909256;29;20080;-73
2023/06/03 08:20:28;;;;;;;8.38;3.25;;;20.30;72.30;;;;;;4908654;29;20101;-74
2023/06/03 08:22:55;;;;;;;6.32;3.30;;;20.40;72.40;;;;;;4908648;29;20084;-75
2023/06/03 08:25:21;;;;;;;9.15;3.50;;;20.50;71.70;;;;;;4908391;29;20299;-73
2023/06/03 08:27:47;;;;;;;7.32;3.13;;;20.50;71.50;;;;;;4907895;29;20024;-74
2023/06/03 08:30:14;;;;;;;7.95;3.63;;;20.60;71.90;;;;;;4908655;29;20060;-74
2023/06/03 08:32:43;;;;;;;8.95;3.63;;;20.70;71.30;;;;;;4891029;29;20028;-74
2023/06/03 08:35:13;;;;;;;7.28;4.30;;;20.70;70.50;;;;;;4908551;29;20134;-74
2023/06/03 08:37:40;;;;;;;9.90;3.65;;;20.70;70.60;;;;;;4891205;29;20029;-73
2023/06/03 08:40:08;;;;;;;11.07;3.72;;;20.70;71.30;;;;;;4908587;29;20036;-73
2023/06/03 08:42:42;;;;;;;9.00;3.88;;;20.80;70.60;;;;;;4891150;29;20247;-73
2023/06/03 08:45:11;;;;;;;8.20;3.63;;;20.90;71.20;;;;;;4908308;29;20028;-73
2023/06/03 08:47:57;;;;;;;11.52;4.00;;;21.10;71.00;;;;;;4907876;29;20022;-72
2023/06/03 08:50:25;;;;;;;9.93;3.85;;;21.10;70.40;;;;;;4908354;29;20023;-73
2023/06/03 08:52:56;;;;;;;9.65;3.60;;;21.10;70.30;;;;;;4907784;29;20041;-74
2023/06/03 08:55:22;;;;;;;7.80;4.10;;;21.20;70.20;;;;;;4891532;29;20317;-74
2023/06/03 08:58:12;;;;;;;10.13;4.03;;;21.30;69.90;;;;;;4906320;29;20100;-74
2023/06/03 09:00:39;;;;;;;7.13;3.20;;;21.20;69.90;;;;;;4907457;29;20039;-75
2023/06/03 09:03:06;;;;;;;7.22;3.42;;;21.20;69.20;;;;;;4907491;29;20089;-72
2023/06/03 09:05:35;;;;;;;11.40;3.85;;;21.30;70.50;;;;;;4907233;29;20358;-73
2023/06/03 09:08:02;;;;;;;8.40;3.83;;;21.50;70.10;;;;;;4907975;29;20024;-72
2023/06/03 09:10:30;;;;;;;9.02;3.60;;;21.60;69.70;;;;;;4907365;29;20221;-72
2023/06/03 09:12:58;;;;;;;9.93;4.22;;;21.70;68.90;;;;;;4907875;29;20230;-73
2023/06/03 09:15:24;;;;;;;7.30;3.40;;;21.70;68.60;;;;;;4907966;29;20028;-72
2023/06/03 09:17:51;;;;;;;9.98;3.75;;;21.70;68.80;;;;;;4890313;29;20084;-73
2023/06/03 09:20:17;;;;;;;7.65;4.00;;;21.80;68.80;;;;;;4907483;29;20032;-74
2023/06/03 09:22:47;;;;;;;7.22;3.78;;;21.90;68.50;;;;;;4907230;29;20045;-74
2023/06/03 09:25:13;;;;;;;9.02;3.20;;;22.10;68.60;;;;;;4907607;29;20036;-73
2023/06/03 09:27:40;;;;;;;7.38;3.38;;;22.30;68.50;;;;;;4906876;29;20036;-74
2023/06/03 09:30:06;;;;;;;6.10;3.60;;;22.50;67.80;;;;;;4907438;29;20060;-73
2023/06/03 09:32:36;;;;;;;6.95;3.63;;;22.70;67.70;;;;;;4906923;29;20039;-72
2023/06/03 09:35:05;;;;;;;6.32;3.25;;;22.70;67.60;;;;;;4906994;29;20072;-73
2023/06/03 09:37:32;;;;;;;9.43;3.80;;;22.80;67.10;;;;;;4906803;29;20039;-72
2023/06/03 09:39:58;;;;;;;9.63;3.88;;;22.70;66.30;;;;;;4907731;29;20264;-72
2023/06/03 09:42:45;;;;;;;8.20;3.55;;;22.70;67.20;;;;;;4907661;29;20115;-73
2023/06/03 09:45:30;;;;;;;7.55;4.03;;;22.90;67.10;;;;;;4906597;29;20087;-73
2023/06/03 09:47:59;;;;;;;7.85;3.80;;;23.00;66.50;;;;;;4907670;29;20424;-72
2023/06/03 09:50:31;;;;;;;8.68;3.58;;;23.10;66.40;;;;;;4907609;29;20033;-72
2023/06/03 09:52:58;;;;;;;8.57;4.22;;;23.10;66.80;;;;;;4907466;29;20050;-72
2023/06/03 09:55:34;;;;;;;9.45;4.07;;;23.20;66.70;;;;;;4907602;29;20032;-72
2023/06/03 09:58:04;;;;;;;9.23;4.22;;;23.30;66.70;;;;;;4907508;29;20043;-70
2023/06/03 10:00:51;;;;;;;7.28;3.97;;;23.30;66.50;;;;;;4907282;29;20036;-71
2023/06/03 10:03:22;;;;;;;6.13;3.45;;;23.50;66.50;;;;;;4906680;29;20037;-75
2023/06/03 10:05:48;;;;;;;6.68;3.65;;;23.50;65.90;;;;;;4906865;29;20040;-73
2023/06/03 10:08:13;;;;;;;8.65;3.65;;;23.50;66.40;;;;;;4907190;29;20044;-74
2023/06/03 10:10:56;;;;;;;7.95;3.63;;;23.60;66.70;;;;;;4907034;29;20202;-74
2023/06/03 10:13:23;;;;;;;8.85;5.95;;;23.80;65.20;;;;;;4907393;29;20040;-74
2023/06/03 10:15:51;;;;;;;8.68;3.92;;;23.80;65.20;;;;;;4905707;29;20037;-73
2023/06/03 10:18:17;;;;;;;9.23;3.40;;;23.90;65.70;;;;;;4907248;29;20044;-74
2023/06/03 10:20:43;;;;;;;7.53;3.97;;;24.00;65.10;;;;;;4906713;29;20424;-74
2023/06/03 10:23:10;;;;;;;9.55;3.78;;;23.90;65.70;;;;;;4907510;29;20028;-73
2023/06/03 10:25:47;;;;;;;9.48;3.67;;;24.00;65.50;;;;;;4906477;29;20059;-73
2023/06/03 10:28:13;;;;;;;7.85;3.90;;;24.00;65.00;;;;;;4906981;29;20036;-73
2023/06/03 10:30:41;;;;;;;8.38;4.03;;;24.10;65.10;;;;;;4906743;29;20044;-72
2023/06/03 10:33:10;;;;;;;9.05;3.88;;;24.20;65.30;;;;;;4907250;29;20048;-72
2023/06/03 10:35:37;;;;;;;8.23;4.40;;;24.20;64.80;;;;;;4906485;29;20033;-73
2023/06/03 10:38:05;;;;;;;6.22;3.65;;;24.20;64.90;;;;;;4907246;29;20056;-72
2023/06/03 10:40:32;;;;;;;8.65;3.60;;;24.30;65.10;;;;;;4906984;29;20040;-72
2023/06/03 10:42:57;;;;;;;6.28;3.95;;;24.50;65.50;;;;;;4889942;29;20250;-73
2023/06/03 10:45:26;;;;;;;7.55;4.53;;;24.70;65.20;;;;;;4906929;29;20044;-73
2023/06/03 10:47:58;;;;;;;8.05;4.70;;;24.80;64.00;;;;;;4909354;29;20029;-70
2023/06/03 10:50:41;;;;;;;8.93;3.90;;;24.90;63.60;;;;;;4893897;29;20217;-71
2023/06/03 10:53:16;;;;;;;8.20;4.10;;;25.10;63.70;;;;;;4910499;29;20033;-72
2023/06/03 10:56:01;;;;;;;8.77;3.97;;;25.50;62.30;;;;;;4910044;29;20324;-73
2023/06/03 10:58:28;;;;;;;7.05;3.88;;;25.50;62.30;;;;;;4909949;29;20222;-74
2023/06/03 11:01:02;;;;;;;6.88;3.67;;;25.70;61.50;;;;;;4909601;29;20274;-74
2023/06/03 11:03:30;;;;;;;6.45;3.53;;;25.80;59.90;;;;;;4909762;29;20053;-74
2023/06/03 11:06:28;;;;;;;7.45;4.10;;;25.80;60.40;;;;;;4909480;29;20032;-73
2023/06/03 11:09:20;;;;;;;;;;;25.90;60.30;;;;;;4868550;29;20045;-72
2023/06/03 11:11:52;;;;;;;7.43;4.32;;;25.90;60.20;;;;;;4880586;29;19908;-75
2023/06/03 11:14:27;;;;;;;8.70;4.05;;;26.00;59.70;;;;;;4910170;29;20048;-72
2023/06/03 11:16:58;;;;;;;12.30;4.03;;;26.20;59.80;;;;;;4909216;29;20028;-74
2023/06/03 11:19:35;;;;;;;5.95;3.67;;;26.50;59.50;;;;;;4909489;29;20222;-74
2023/06/03 11:22:07;;;;;;;6.50;3.28;;;26.70;58.20;;;;;;4909917;29;20033;-73
2023/06/03 11:24:39;;;;;;;7.10;4.00;;;26.80;58.80;;;;;;4909889;29;20096;-73
2023/06/03 11:27:14;;;;;;;6.35;4.00;;;27.10;57.70;;;;;;4909932;29;20040;-73
2023/06/03 11:29:46;;;;;;;8.43;3.92;;;27.30;57.90;;;;;;4892336;29;20043;-73
2023/06/03 11:32:25;;;;;;;7.45;3.75;;;27.30;58.00;;;;;;4909496;29;20036;-71
2023/06/03 11:35:03;;;;;;;6.00;3.67;;;27.50;57.70;;;;;;4908773;29;20072;-73
2023/06/03 11:37:40;;;;;;;6.88;3.72;;;28.10;57.20;;;;;;4909451;29;20040;-73
2023/06/03 11:40:08;;;;;;;7.25;3.42;;;28.40;55.70;;;;;;4909329;29;20036;-72
2023/06/03 11:42:55;;;;;;;8.00;4.13;;;;;;;;;;4909641;29;20029;-72
2023/06/03 11:45:28;;;;;;;9.55;5.63;;;29.80;53.40;;;;;;4909590;29;20028;-72
2023/06/03 11:47:54;;;;;;;7.63;5.22;;;30.70;53.30;;;;;;4909027;29;20133;-72
2023/06/03 11:50:26;;;;;;;8.32;3.75;;;32.10;52.00;;;;;;4908331;29;20206;-74
2023/06/03 11:52:52;;;;;;;5.20;3.40;;;33.50;50.90;;;;;;4892137;29;20274;-74
2023/06/03 11:55:25;;;;;;;5.60;3.40;;;34.30;49.50;;;;;;4909253;29;20084;-71
2023/06/03 11:57:52;;;;;;;7.97;3.75;;;33.60;49.20;;;;;;4908043;29;20107;-72
2023/06/03 12:00:19;;;;;;;6.65;3.47;;;32.60;49.90;;;;;;4907904;29;20049;-73
2023/06/03 12:02:46;;;;;;;6.55;3.55;;;31.60;50.50;;;;;;4908271;29;20067;-72
2023/06/03 12:05:15;;;;;;;6.50;3.53;;;31.10;51.80;;;;;;4909198;29;20028;-72
2023/06/03 12:07:52;;;;;;;8.38;5.60;;;31.40;51.60;;;;;;4908600;29;20056;-76
2023/06/03 12:10:18;;;;;;;7.20;4.40;;;32.20;51.00;;;;;;4908947;29;20040;-74
2023/06/03 12:12:55;;;;;;;7.75;4.00;;;33.80;49.40;;;;;;4908585;29;20083;-70
2023/06/03 12:15:21;;;;;;;7.50;3.83;;;34.00;48.70;;;;;;4908974;29;20028;-70
2023/06/03 12:17:47;;;;;;;5.07;3.17;;;35.50;48.30;;;;;;4908364;29;20036;-71
2023/06/03 12:20:27;;;;;;;6.07;3.33;;;37.00;47.00;;;;;;4908804;29;20310;-74
2023/06/03 12:23:06;;;;;;;5.82;2.95;;;37.90;45.70;;;;;;4908027;29;20056;-72
2023/06/03 12:25:33;;;;;;;7.13;3.58;;;38.30;44.70;;;;;;4908803;29;20104;-73
2023/06/03 12:28:19;;;;;;;5.53;3.00;;;38.70;44.20;;;;;;4908314;29;20016;-73
2023/06/03 12:30:45;;;;;;;5.37;2.80;;;38.60;43.40;;;;;;4908282;29;20047;-72
2023/06/03 12:33:11;;;;;;;6.63;3.38;;;37.30;44.00;;;;;;4908718;29;20036;-71
2023/06/03 12:35:38;;;;;;;6.57;3.38;;;36.80;44.50;;;;;;4908672;29;20060;-72
2023/06/03 12:38:08;;;;;;;5.82;3.30;;;37.70;45.20;;;;;;4908009;29;20028;-72
2023/06/03 12:40:35;;;;;;;4.78;2.90;;;39.00;44.50;;;;;;4908654;29;20036;-73
2023/06/03 12:43:03;;;;;;;4.57;3.20;;;40.00;43.40;;;;;;4907972;29;20227;-75
2023/06/03 12:45:29;;;;;;;3.38;2.65;;;40.60;43.00;;;;;;4908126;29;20314;-74
2023/06/03 12:47:55;;;;;;;6.55;3.25;;;40.90;42.20;;;;;;4907895;29;20033;-75
2023/06/03 12:50:23;;;;;;;6.15;3.17;;;38.90;42.40;;;;;;4908190;29;20037;-75
2023/06/03 12:52:49;;;;;;;;;;;36.40;44.20;;;;;;4908356;29;20043;-72
2023/06/03 12:55:17;;;;;;;7.07;3.30;;;35.10;45.10;;;;;;4908338;29;19942;-73
2023/06/03 12:57:48;;;;;;;6.78;3.25;;;34.80;45.60;;;;;;4907734;29;20164;-72
2023/06/03 13:00:16;;;;;;;7.85;3.40;;;35.00;46.20;;;;;;4908354;29;20036;-74
2023/06/03 13:02:44;;;;;;;7.53;3.55;;;35.60;46.10;;;;;;4907639;29;20070;-74
2023/06/03 13:05:11;;;;;;;5.28;3.25;;;37.20;45.60;;;;;;4908133;29;20310;-74
2023/06/03 13:07:40;;;;;;;7.80;3.35;;;38.30;44.30;;;;;;4908426;29;20032;-76
2023/06/03 13:10:08;;;;;;;6.55;3.00;;;39.40;43.50;;;;;;4907430;29;20076;-75
2023/06/03 13:12:35;;;;;;;8.00;3.10;;;40.60;42.70;;;;;;4891614;29;20040;-73
2023/06/03 13:15:01;;;;;;;5.78;3.58;;;40.00;42.70;;;;;;4907424;29;20036;-74
2023/06/03 13:17:27;;;;;;;8.45;3.78;;;38.20;43.30;;;;;;4908066;29;20107;-75
2023/06/03 13:19:53;;;;;;;7.00;3.70;;;36.60;44.30;;;;;;4907034;29;20334;-74
2023/06/03 13:22:20;;;;;;;4.07;3.05;;;35.70;45.20;;;;;;4907664;29;20032;-74
2023/06/03 13:24:46;;;;;;;8.10;6.10;;;35.20;45.60;;;;;;4907110;29;20299;-72
2023/06/03 13:27:12;;;;;;;5.95;4.05;;;36.20;45.30;;;;;;4907843;29;20029;-73
2023/06/03 13:29:41;;;;;;;6.30;3.85;;;38.20;44.00;;;;;;4891080;29;20191;-74
2023/06/03 13:32:08;;;;;;;5.47;3.20;;;39.60;43.30;;;;;;4907256;29;20037;-73
2023/06/03 13:34:35;;;;;;;5.65;2.70;;;40.80;42.40;;;;;;4907837;29;20099;-72
2023/06/03 13:37:00;;;;;;;5.13;3.35;;;39.30;42.60;;;;;;4907197;29;20025;-71
2023/06/03 13:39:28;;;;;;;5.30;3.35;;;37.40;43.80;;;;;;4906206;29;20059;-71
2023/06/03 13:41:55;;;;;;;;;;;35.80;44.80;;;;;;4907261;29;20064;-73
2023/06/03 13:44:21;;;;;;;6.82;3.63;;;34.30;46.00;;;;;;4907693;29;19914;-72
2023/06/03 13:46:51;;;;;;;5.78;3.63;;;33.10;47.10;;;;;;4907087;29;20040;-71
2023/06/03 13:49:16;;;;;;;7.68;3.47;;;32.30;48.20;;;;;;4890918;29;20222;-72
2023/06/03 13:51:42;;;;;;;6.07;3.38;;;32.30;49.00;;;;;;4907753;29;20063;-71
2023/06/03 13:54:08;;;;;;;5.57;3.50;;;33.50;47.00;;;;;;4907047;29;20205;-70
2023/06/03 13:56:34;;;;;;;6.82;3.85;;;34.00;46.40;;;;;;4907647;29;20060;-71
2023/06/03 13:59:00;;;;;;;4.97;3.00;;;35.50;45.00;;;;;;4906624;29;20040;-72
2023/06/03 14:01:27;;;;;;;5.78;3.28;;;37.60;43.40;;;;;;4907480;29;20099;-73
2023/06/03 14:03:53;;;;;;;5.10;3.15;;;40.00;42.60;;;;;;4906465;29;20079;-73
2023/06/03 14:06:19;;;;;;;4.95;3.00;;;41.10;41.80;;;;;;4907992;29;20084;-73
2023/06/03 14:08:45;;;;;;;7.38;3.58;;;40.60;41.20;;;;;;4907448;29;20040;-73
2023/06/03 14:11:10;;;;;;;4.88;3.20;;;37.60;42.60;;;;;;4906869;29;20020;-72
2023/06/03 14:13:36;;;;;;;5.57;3.63;;;36.20;44.10;;;;;;4890912;29;20041;-71
2023/06/03 14:16:02;;;;;;;5.18;3.45;;;34.60;45.10;;;;;;4906801;29;20243;-71
2023/06/03 14:18:28;;;;;;;6.47;3.50;;;33.50;45.90;;;;;;4907316;29;20044;-72
2023/06/03 14:20:54;;;;;;;8.38;3.97;;;32.70;46.40;;;;;;4906418;29;20099;-71
2023/06/03 14:23:20;;;;;;;4.93;3.47;;;32.40;47.10;;;;;;4910748;29;20032;-71
2023/06/03 14:25:46;;;;;;;7.00;3.88;;;33.50;46.20;;;;;;4911123;29;20103;-71
2023/06/03 14:28:11;;;;;;;5.57;3.47;;;36.10;45.30;;;;;;4910735;29;20024;-72
2023/06/03 14:30:37;;;;;;;6.13;3.20;;;38.40;42.70;;;;;;4911000;29;20095;-71
2023/06/03 14:33:03;;;;;;;5.60;3.10;;;38.60;42.10;;;;;;4909979;29;20029;-73
2023/06/03 14:35:28;;;;;;;4.72;3.25;;;38.00;42.20;;;;;;4910941;29;20289;-72
2023/06/03 14:37:54;;;;;;;9.80;5.70;;;37.40;42.90;;;;;;4893429;29;20258;-71
2023/06/03 14:40:20;;;;;;;7.05;3.50;;;36.40;44.40;;;;;;4910836;29;20029;-73
2023/06/03 14:42:46;;;;;;;6.68;3.28;;;37.90;43.70;;;;;;4910633;29;20303;-72
2023/06/03 14:45:13;;;;;;;7.00;3.00;;;39.20;42.60;;;;;;4910165;29;20051;-71
2023/06/03 14:47:38;;;;;;;4.30;2.88;;;40.00;41.80;;;;;;4910315;29;20087;-73
2023/06/03 14:50:06;;;;;;;5.68;3.35;;;41.10;41.70;;;;;;4910105;29;20036;-73
2023/06/03 14:52:32;;;;;;;7.03;3.28;;;40.50;41.40;;;;;;4910545;29;20036;-72
2023/06/03 14:54:58;;;;;;;5.97;3.67;;;39.20;41.80;;;;;;4909564;29;20036;-71
2023/06/03 14:57:24;;;;;;;7.88;3.65;;;39.30;41.80;;;;;;4910385;29;20084;-73
2023/06/03 14:59:50;;;;;;;8.85;2.97;;;39.60;41.80;;;;;;4909881;29;20140;-72
2023/06/03 15:02:15;;;;;;;5.22;3.25;;;38.40;41.80;;;;;;4909992;29;20040;-71
2023/06/03 15:04:41;;;;;;;4.72;2.70;;;38.50;42.60;;;;;;4910280;29;20036;-75
2023/06/03 15:07:07;;;;;;;4.07;2.88;;;39.80;41.60;;;;;;4909679;29;20040;-73
2023/06/03 15:09:33;;;;;;;5.28;2.95;;;41.20;40.70;;;;;;4909846;29;20043;-71
2023/06/03 15:12:00;;;;;;;;;;;42.40;39.80;;;;;;4910085;29;20064;-72
2023/06/03 15:14:26;;;;;;;4.43;2.88;;;42.80;39.30;;;;;;4910162;29;19919;-72
2023/06/03 15:16:52;;;;;;;5.10;3.05;;;41.80;39.60;;;;;;4909602;29;20107;-72
2023/06/03 15:19:19;;;;;;;4.53;3.08;;;40.10;40.50;;;;;;4909705;29;20219;-74
2023/06/03 15:21:44;;;;;;;4.60;2.83;;;38.50;41.80;;;;;;4909745;29;20044;-72
2023/06/03 15:24:10;;;;;;;5.20;3.25;;;36.80;42.80;;;;;;4909120;29;20099;-71
2023/06/03 15:26:36;;;;;;;6.50;3.35;;;37.10;43.10;;;;;;4909897;29;20318;-73
2023/06/03 15:29:02;;;;;;;6.25;2.95;;;38.00;42.60;;;;;;4909272;29;20044;-71
2023/06/03 15:31:28;;;;;;;5.50;3.20;;;39.10;42.00;;;;;;4909725;29;20028;-72
2023/06/03 15:33:53;;;;;;;4.45;3.00;;;40.00;41.30;;;;;;4907986;29;20221;-72
2023/06/03 15:36:20;;;;;;;4.80;2.88;;;41.10;40.90;;;;;;4909868;29;20109;-73
2023/06/03 15:38:46;;;;;;;6.40;2.97;;;41.00;40.30;;;;;;4909445;29;20287;-75
2023/06/03 15:41:11;;;;;;;7.30;3.13;;;41.50;40.00;;;;;;4908933;29;20060;-73
2023/06/03 15:43:37;;;;;;;7.07;5.47;;;42.00;39.90;;;;;;4893028;29;20048;-73
2023/06/03 15:46:03;;;;;;;5.72;2.92;;;42.30;39.30;;;;;;4908779;29;20357;-73
2023/06/03 15:48:29;;;;;;;5.68;3.20;;;41.90;39.60;;;;;;4909260;29;20103;-73
2023/06/03 15:50:55;;;;;;;5.13;3.13;;;42.10;39.60;;;;;;4908807;29;20326;-73
2023/06/03 15:53:21;;;;;;;6.00;2.97;;;42.20;39.40;;;;;;4909555;29;20056;-72
2023/06/03 15:55:47;;;;;;;4.97;2.60;;;42.40;39.20;;;;;;4909188;29;20036;-74
2023/06/03 15:58:13;;;;;;;4.43;2.60;;;42.70;39.20;;;;;;4908443;29;20235;-74
2023/06/03 16:00:42;;;;;;;6.00;2.90;;;42.40;39.30;;;;;;4909122;29;20335;-73
2023/06/03 16:03:08;;;;;;;6.88;2.85;;;41.70;39.90;;;;;;4908195;29;20390;-74
2023/06/03 16:05:34;;;;;;;4.88;3.00;;;41.70;39.70;;;;;;4908876;29;20061;-72
2023/06/03 16:08:00;;;;;;;5.70;3.00;;;41.00;40.10;;;;;;4908539;29;20029;-73
2023/06/03 16:10:25;;;;;;;7.20;2.97;;;41.00;40.00;;;;;;4908852;29;20079;-74
2023/06/03 16:12:51;;;;;;;6.15;2.92;;;40.50;39.80;;;;;;4908830;29;20025;-73
2023/06/03 16:15:17;;;;;;;7.55;3.03;;;38.90;40.70;;;;;;4908268;29;20037;-76
2023/06/03 16:17:43;;;;;;;6.65;3.03;;;37.60;41.80;;;;;;4909026;29;20028;-75
2023/06/03 16:20:09;;;;;;;5.75;3.38;;;37.40;42.30;;;;;;4908341;29;20052;-76
2023/06/03 16:22:35;;;;;;;4.28;2.72;;;38.70;41.50;;;;;;4908934;29;20043;-74
2023/06/03 16:25:03;;;;;;;4.35;3.10;;;39.50;40.80;;;;;;4908347;29;20036;-72
2023/06/03 16:27:29;;;;;;;6.82;3.15;;;39.10;40.90;;;;;;4891888;29;20214;-71
2023/06/03 16:29:55;;;;;;;5.03;3.38;;;39.20;41.30;;;;;;4908226;29;20044;-75
2023/06/03 16:32:20;;;;;;;9.60;5.40;;;39.60;40.80;;;;;;4908457;29;20064;-71
2023/06/03 16:34:46;;;;;;;7.68;5.32;;;40.20;40.50;;;;;;4908678;29;20040;-72
2023/06/03 16:37:12;;;;;;;5.55;2.95;;;40.60;40.20;;;;;;4908198;29;20047;-73
2023/06/03 16:39:38;;;;;;;6.82;3.38;;;40.20;40.00;;;;;;4908237;29;20032;-75
2023/06/03 16:42:05;;;;;;;6.60;3.20;;;40.00;40.30;;;;;;4907775;29;20200;-74
2023/06/03 16:44:30;;;;;;;6.95;3.25;;;38.90;40.90;;;;;;4907981;29;20036;-73
2023/06/03 16:46:56;;;;;;;4.95;3.00;;;39.00;41.30;;;;;;4907795;29;20033;-74
2023/06/03 16:49:22;;;;;;;4.93;2.90;;;39.60;41.10;;;;;;4908487;29;20047;-75
2023/06/03 16:51:51;;;;;;;6.03;3.35;;;39.00;41.30;;;;;;4908357;29;20044;-73
2023/06/03 16:54:17;;;;;;;5.05;2.90;;;38.00;41.60;;;;;;4891045;29;20032;-71
2023/06/03 16:56:43;;;;;;;7.07;3.38;;;37.40;42.30;;;;;;4908410;29;20032;-72
2023/06/03 16:59:09;;;;;;;8.57;3.70;;;37.30;42.20;;;;;;4907533;29;20251;-73
2023/06/03 17:01:35;;;;;;;5.80;3.25;;;37.10;42.50;;;;;;4907905;29;20041;-73
2023/06/03 17:04:02;;;;;;;7.05;4.47;;;37.50;42.30;;;;;;4907170;29;20242;-74
2023/06/03 17:06:28;;;;;;;6.55;4.03;;;37.70;42.00;;;;;;4908282;29;20328;-72
2023/06/03 17:08:55;;;;;;;6.82;3.45;;;37.30;42.10;;;;;;4891572;29;20052;-74
2023/06/03 17:11:21;;;;;;;6.78;3.30;;;37.30;42.20;;;;;;4907248;29;20088;-74
2023/06/03 17:13:47;;;;;;;5.03;3.17;;;37.50;41.70;;;;;;4907799;29;20040;-73
2023/06/03 17:16:13;;;;;;;4.82;2.90;;;37.10;42.20;;;;;;4907154;29;20369;-74
2023/06/03 17:18:39;;;;;;;8.80;3.08;;;36.70;42.40;;;;;;4907968;29;20214;-75
2023/06/03 17:21:05;;;;;;;8.48;3.65;;;36.60;42.70;;;;;;4906285;29;20067;-74
2023/06/03 17:23:31;;;;;;;7.97;3.40;;;36.30;42.80;;;;;;4908051;29;20314;-72
2023/06/03 17:25:57;;;;;;;5.00;3.20;;;36.00;42.90;;;;;;4907965;29;20036;-72
2023/06/03 17:28:23;;;;;;;8.15;3.55;;;35.70;43.30;;;;;;4907906;29;20103;-73
2023/06/03 17:30:49;;;;;;;5.20;3.50;;;35.30;43.50;;;;;;4891143;29;20036;-71
2023/06/03 17:33:15;;;;;;;4.97;3.25;;;35.10;43.60;;;;;;4906964;29;20230;-73
2023/06/03 17:35:40;;;;;;;6.22;3.53;;;34.70;43.90;;;;;;4907457;29;20113;-75
2023/06/03 17:38:06;;;;;;;4.88;3.40;;;34.70;43.70;;;;;;4906878;29;20326;-74
2023/06/03 17:40:32;;;;;;;7.10;3.58;;;34.10;44.50;;;;;;4907521;29;20060;-73
2023/06/03 17:42:57;;;;;;;7.68;3.85;;;34.20;44.60;;;;;;4907718;29;20152;-74
2023/06/03 17:45:25;;;;;;;6.93;3.67;;;34.50;44.50;;;;;;4907156;29;20222;-74
2023/06/03 17:47:50;;;;;;;5.68;3.35;;;34.10;44.50;;;;;;4907528;29;20051;-73
2023/06/03 17:50:18;;;;;;;6.22;3.13;;;33.60;44.70;;;;;;4906597;29;20041;-73
2023/06/03 17:52:46;;;;;;;6.60;3.80;;;33.70;45.00;;;;;;4907365;29;20092;-73